createdAt,value
2022-12-26T00:02:03.613Z,9.95
2022-12-26T00:04:53.516Z,9.15
2022-12-26T00:07:25.891Z,10.07
2022-12-26T00:10:08.754Z,10.70
2022-12-26T00:12:56.290Z,10.10
2022-12-26T00:16:13.080Z,11.05
2022-12-26T00:19:00.927Z,10.90
2022-12-26T00:21:43.674Z,11.07
2022-12-26T00:24:14.581Z,12.07
2022-12-26T00:26:45.524Z,10.82
2022-12-26T00:29:19.021Z,11.35
2022-12-26T00:31:49.560Z,11.43
2022-12-26T00:34:34.326Z,11.85
2022-12-26T00:37:21.955Z,11.23
2022-12-26T00:40:11.685Z,10.48
2022-12-26T00:42:59.339Z,12.05
2022-12-26T00:45:49.869Z,11.48
2022-12-26T00:48:30.981Z,12.30
2022-12-26T00:51:14.404Z,13.13
2022-12-26T00:54:03.172Z,11.18
2022-12-26T00:56:50.749Z,8.50
2022-12-26T00:59:39.144Z,8.95
2022-12-26T01:02:39.215Z,9.05
2022-12-26T01:05:29.736Z,7.93
2022-12-26T01:08:22.693Z,6.50
2022-12-26T01:10:54.862Z,7.43
2022-12-26T01:13:25.669Z,6.43
2022-12-26T01:15:56.604Z,5.65
2022-12-26T01:18:44.213Z,6.43
2022-12-26T01:21:31.897Z,6.07
2022-12-26T01:24:14.835Z,6.50
2022-12-26T01:26:47.863Z,6.35
2022-12-26T01:29:22.608Z,6.90
2022-12-26T01:31:51.206Z,6.47
2022-12-26T01:34:38.764Z,5.47
2022-12-26T01:37:14.171Z,6.03
2022-12-26T01:39:43.153Z,5.55
2022-12-26T01:42:25.817Z,4.57
2022-12-26T01:45:29.953Z,4.75
2022-12-26T01:48:08.162Z,4.38
2022-12-26T01:50:44.532Z,3.88
2022-12-26T01:53:22.439Z,4.25
2022-12-26T01:56:15.903Z,3.65
2022-12-26T01:58:47.337Z,2.85
2022-12-26T02:01:17.210Z,4.15
2022-12-26T02:04:25.952Z,2.50
2022-12-26T02:07:04.802Z,2.63
2022-12-26T02:09:52.388Z,2.78
2022-12-26T02:12:41.111Z,2.17
2022-12-26T02:15:29.200Z,2.58
2022-12-26T02:18:07.140Z,3.08
2022-12-26T02:20:44.135Z,2.83
2022-12-26T02:23:44.116Z,2.92
2022-12-26T02:26:23.887Z,3.65
2022-12-26T02:28:59.432Z,3.40
2022-12-26T02:31:30.987Z,3.88
2022-12-26T02:34:11.389Z,4.53
2022-12-26T02:36:58.015Z,4.35
2022-12-26T02:39:43.363Z,4.60
2022-12-26T02:42:23.017Z,4.95
2022-12-26T02:45:11.716Z,4.70
2022-12-26T02:47:42.839Z,5.25
2022-12-26T02:50:28.307Z,5.47
2022-12-26T02:53:26.653Z,5.38
2022-12-26T02:56:18.076Z,5.30
2022-12-26T02:59:13.913Z,6.10
2022-12-26T03:02:08.542Z,6.38
2022-12-26T03:05:07.338Z,6.47
2022-12-26T03:07:57.201Z,7.55
2022-12-26T03:10:54.129Z,6.72
2022-12-26T03:13:36.883Z,6.72
2022-12-26T03:16:26.525Z,7.10
2022-12-26T03:19:08.473Z,6.75
2022-12-26T03:21:56.790Z,7.07
2022-12-26T03:25:02.872Z,7.28
2022-12-26T03:27:46.491Z,8.00
2022-12-26T03:30:35.369Z,7.18
2022-12-26T03:33:40.603Z,7.80
2022-12-26T03:36:16.840Z,7.15
2022-12-26T03:39:21.702Z,8.65
2022-12-26T03:42:23.419Z,6.78
2022-12-26T03:45:21.557Z,7.22
2022-12-26T03:48:18.302Z,7.55
2022-12-26T03:51:07.814Z,7.50
2022-12-26T03:54:08.116Z,7.53
2022-12-26T03:56:54.109Z,8.30
2022-12-26T03:59:47.364Z,8.50
2022-12-26T04:02:49.812Z,7.40
2022-12-26T04:05:36.320Z,7.35
2022-12-26T04:08:25.453Z,7.15
2022-12-26T04:11:14.245Z,7.60
2022-12-26T04:14:09.917Z,7.53
2022-12-26T04:17:05.428Z,8.55
2022-12-26T04:19:52.975Z,8.55
2022-12-26T04:22:48.393Z,8.38
2022-12-26T04:25:50.252Z,8.05
2022-12-26T04:28:40.467Z,7.95
2022-12-26T04:31:36.015Z,8.15
2022-12-26T04:34:39.251Z,7.97
2022-12-26T04:37:35.478Z,8.07
2022-12-26T04:40:30.689Z,8.38
2022-12-26T04:43:46.754Z,7.95
2022-12-26T04:49:28.691Z,7.45
2022-12-26T04:51:57.719Z,7.95
2022-12-26T04:54:26.124Z,7.18
2022-12-26T04:56:56.798Z,7.28
2022-12-26T04:59:25.283Z,6.93
2022-12-26T05:02:11.508Z,6.38
2022-12-26T05:05:12.810Z,5.72
2022-12-26T05:08:13.198Z,5.25
2022-12-26T05:10:53.393Z,5.13
2022-12-26T05:13:23.422Z,4.55
2022-12-26T05:16:09.546Z,5.82
2022-12-26T05:19:13.555Z,5.80
2022-12-26T05:22:00.826Z,5.60
2022-12-26T05:24:53.605Z,4.68
2022-12-26T05:27:53.511Z,5.78
2022-12-26T05:30:30.597Z,5.43
2022-12-26T05:33:28.588Z,5.22
2022-12-26T05:36:12.514Z,4.72
2022-12-26T05:38:41.833Z,5.13
2022-12-26T05:41:10.376Z,5.53
2022-12-26T05:43:39.365Z,5.10
2022-12-26T05:46:08.220Z,5.55
2022-12-26T05:48:36.799Z,5.38
2022-12-26T05:51:05.904Z,5.95
2022-12-26T05:53:35.292Z,5.90
2022-12-26T05:56:12.105Z,6.07
2022-12-26T05:58:42.445Z,6.15
2022-12-26T06:01:13.574Z,6.45
2022-12-26T06:04:01.650Z,6.20
2022-12-26T06:06:43.047Z,5.80
2022-12-26T06:09:17.680Z,6.47
2022-12-26T06:11:48.985Z,6.50
2022-12-26T06:14:17.976Z,7.18
2022-12-26T06:16:48.905Z,6.38
2022-12-26T06:19:17.563Z,7.00
2022-12-26T06:21:46.189Z,7.60
2022-12-26T06:24:25.515Z,7.05
2022-12-26T06:26:54.676Z,7.10
2022-12-26T06:29:23.164Z,8.00
2022-12-26T06:31:51.872Z,7.18
2022-12-26T06:34:20.909Z,7.45
2022-12-26T06:36:49.298Z,7.55
2022-12-26T06:39:18.395Z,8.35
2022-12-26T06:41:49.868Z,8.13
2022-12-26T06:44:20.935Z,8.00
2022-12-26T06:46:50.464Z,7.15
2022-12-26T06:49:21.355Z,7.25
2022-12-26T06:51:50.535Z,7.53
2022-12-26T06:54:19.343Z,7.13
2022-12-26T06:56:49.619Z,7.88
2022-12-26T06:59:20.525Z,7.78
2022-12-26T07:01:50.120Z,8.10
2022-12-26T07:04:21.986Z,7.47
2022-12-26T07:06:50.510Z,7.80
2022-12-26T07:09:19.868Z,7.30
2022-12-26T07:11:49.765Z,8.25
2022-12-26T07:14:24.231Z,7.55
2022-12-26T07:16:52.919Z,7.80
2022-12-26T07:19:22.002Z,8.40
2022-12-26T07:21:50.535Z,8.40
2022-12-26T07:24:22.045Z,7.72
2022-12-26T07:26:51.841Z,8.00
2022-12-26T07:29:24.036Z,7.75
2022-12-26T07:31:52.359Z,7.28
2022-12-26T07:34:24.002Z,6.43
2022-12-26T07:36:57.067Z,6.78
2022-12-26T07:39:33.903Z,6.55
2022-12-26T07:42:10.401Z,6.18
2022-12-26T07:44:43.462Z,5.95
2022-12-26T07:47:12.924Z,6.22
2022-12-26T07:49:45.551Z,5.78
2022-12-26T07:52:31.222Z,5.55
2022-12-26T07:55:01.121Z,5.55
2022-12-26T07:57:48.701Z,5.07
2022-12-26T08:00:29.027Z,5.00
2022-12-26T08:03:16.880Z,4.78
2022-12-26T08:06:00.015Z,4.43
2022-12-26T08:08:51.629Z,3.70
2022-12-26T08:11:36.111Z,3.63
2022-12-26T08:14:05.948Z,3.80
2022-12-26T08:16:53.340Z,4.20
2022-12-26T08:19:36.969Z,2.83
2022-12-26T08:22:10.946Z,3.45
2022-12-26T08:24:41.331Z,3.00
2022-12-26T08:27:12.346Z,2.78
2022-12-26T08:29:41.371Z,2.47
2022-12-26T08:32:12.929Z,2.97
2022-12-26T08:34:41.462Z,2.58
2022-12-26T08:37:09.733Z,2.97
2022-12-26T08:39:39.300Z,1.98
2022-12-26T08:42:07.861Z,1.98
2022-12-26T08:44:49.991Z,1.83
2022-12-26T08:47:18.768Z,1.60
2022-12-26T08:49:47.814Z,1.67
2022-12-26T08:52:19.434Z,1.60
2022-12-26T08:54:50.356Z,1.23
2022-12-26T08:57:18.876Z,1.55
2022-12-26T08:59:47.176Z,1.42
2022-12-26T09:02:16.198Z,2.13
2022-12-26T09:04:44.984Z,1.45
2022-12-26T09:07:20.552Z,1.20
2022-12-26T09:10:02.017Z,8.95
2022-12-26T09:12:43.525Z,1.42
2022-12-26T09:15:21.079Z,7.43
2022-12-26T09:17:56.306Z,1.30
2022-12-26T09:20:30.447Z,1.40
2022-12-26T09:23:21.002Z,1.13
2022-12-26T09:25:53.809Z,1.02
2022-12-26T09:28:22.721Z,1.38
2022-12-26T09:30:51.054Z,1.48
2022-12-26T09:33:24.650Z,1.00
2022-12-26T09:35:59.817Z,1.40
2022-12-26T09:38:48.443Z,1.13
2022-12-26T09:41:33.339Z,1.17
2022-12-26T09:44:18.687Z,1.30
2022-12-26T09:47:02.265Z,1.80
2022-12-26T09:49:33.259Z,1.50
2022-12-26T09:52:03.130Z,1.30
2022-12-26T09:54:35.836Z,1.13
2022-12-26T09:57:14.820Z,1.10
2022-12-26T09:59:49.846Z,1.20
2022-12-26T10:02:24.130Z,1.30
2022-12-26T10:04:56.856Z,1.40
2022-12-26T10:07:26.244Z,1.08
2022-12-26T10:10:13.450Z,4.00
2022-12-26T10:12:46.346Z,1.88
2022-12-26T10:15:17.274Z,0.80
2022-12-26T10:17:55.706Z,1.15
2022-12-26T10:20:52.919Z,1.05
2022-12-26T10:23:29.831Z,1.48
2022-12-26T10:26:25.126Z,1.17
2022-12-26T10:28:56.162Z,0.93
2022-12-26T10:31:32.804Z,3.20
2022-12-26T10:34:23.710Z,2.03
2022-12-26T10:37:01.720Z,1.55
2022-12-26T10:39:56.579Z,0.80
2022-12-26T10:42:35.904Z,0.90
2022-12-26T10:45:26.787Z,2.42
2022-12-26T10:47:55.717Z,0.85
2022-12-26T10:50:28.879Z,1.42
2022-12-26T10:53:12.635Z,0.95
2022-12-26T10:55:46.099Z,1.30
2022-12-26T10:58:33.548Z,0.70
2022-12-26T11:01:35.768Z,0.98
2022-12-26T11:05:01.944Z,0.85
2022-12-26T11:07:19.869Z,1.10
2022-12-26T11:09:55.912Z,7.25
2022-12-26T11:12:28.169Z,1.00
2022-12-26T11:15:00.195Z,0.60
2022-12-26T11:17:35.061Z,0.25
2022-12-26T11:20:20.148Z,0.90
2022-12-26T11:22:48.920Z,0.82
2022-12-26T11:25:24.584Z,0.47
2022-12-26T11:27:56.969Z,0.80
2022-12-26T11:30:29.437Z,0.82
2022-12-26T11:33:14.801Z,0.80
2022-12-26T11:35:49.637Z,0.63
2022-12-26T11:38:37.577Z,0.80
2022-12-26T11:41:33.168Z,0.60
2022-12-26T11:44:12.213Z,1.30
2022-12-26T11:47:00.870Z,1.30
2022-12-26T11:49:34.942Z,1.10
2022-12-26T11:52:31.711Z,0.73
2022-12-26T11:55:27.889Z,0.80
2022-12-26T11:58:06.330Z,1.13
2022-12-26T12:00:36.888Z,0.82
2022-12-26T12:03:35.832Z,0.82
2022-12-26T12:06:04.118Z,0.73
2022-12-26T12:08:47.803Z,0.88
2022-12-26T12:11:26.560Z,0.60
2022-12-26T12:14:12.928Z,1.83
2022-12-26T12:16:49.514Z,1.17
2022-12-26T12:19:34.025Z,0.70
2022-12-26T12:22:20.341Z,0.70
2022-12-26T12:25:01.340Z,1.02
2022-12-26T12:27:39.306Z,1.02
2022-12-26T12:30:20.032Z,1.60
2022-12-26T12:32:56.855Z,2.10
2022-12-26T12:35:25.768Z,0.80
2022-12-26T12:38:02.993Z,1.20
2022-12-26T12:40:53.185Z,0.90
2022-12-26T12:43:36.720Z,1.27
2022-12-26T12:46:04.699Z,0.90
2022-12-26T12:48:43.593Z,0.75
2022-12-26T12:51:34.092Z,0.43
2022-12-26T12:54:07.857Z,0.60
2022-12-26T12:56:50.431Z,0.50
2022-12-26T12:59:20.679Z,0.40
2022-12-26T13:01:51.911Z,0.68
2022-12-26T13:04:30.542Z,0.55
2022-12-26T13:07:06.290Z,0.60
2022-12-26T13:09:45.331Z,0.50
2022-12-26T13:12:22.488Z,4.75
2022-12-26T13:14:53.530Z,5.55
2022-12-26T13:17:39.104Z,1.10
2022-12-26T13:20:16.125Z,0.70
2022-12-26T13:23:10.242Z,0.90
2022-12-26T13:25:49.611Z,1.02
2022-12-26T13:28:26.068Z,2.15
2022-12-26T13:33:37.000Z,1.83
2022-12-26T13:36:33.313Z,1.58
2022-12-26T13:39:13.655Z,1.95
2022-12-26T13:42:05.772Z,2.13
2022-12-26T13:47:04.039Z,1.70
2022-12-26T13:49:40.624Z,2.05
2022-12-26T13:52:11.862Z,1.60
2022-12-26T13:54:44.088Z,1.90
2022-12-26T13:57:31.371Z,1.60
2022-12-26T14:00:12.569Z,1.63
2022-12-26T14:03:17.987Z,1.60
2022-12-26T14:05:56.435Z,2.30
2022-12-26T14:08:43.279Z,1.77
2022-12-26T14:11:33.318Z,1.80
2022-12-26T14:14:04.091Z,2.17
2022-12-26T14:16:39.760Z,2.10
2022-12-26T14:19:16.365Z,2.60
2022-12-26T14:22:03.201Z,2.42
2022-12-26T14:24:34.721Z,2.35
2022-12-26T14:29:42.405Z,3.03
2022-12-26T14:32:20.070Z,3.08
2022-12-26T14:35:09.023Z,3.42
2022-12-26T14:37:52.424Z,3.38
2022-12-26T14:40:26.755Z,2.80
2022-12-26T14:43:12.548Z,3.05
2022-12-26T14:45:45.001Z,3.28
2022-12-26T14:48:16.342Z,4.15
2022-12-26T14:50:48.244Z,4.20
2022-12-26T14:53:27.447Z,3.65
2022-12-26T14:55:55.552Z,3.63
2022-12-26T14:58:30.542Z,3.88
2022-12-26T15:01:10.549Z,3.38
2022-12-26T15:03:58.536Z,3.47
2022-12-26T15:06:48.551Z,2.97
2022-12-26T15:09:21.900Z,2.80
2022-12-26T15:11:55.092Z,2.95
2022-12-26T15:14:41.499Z,3.28
2022-12-26T15:17:18.701Z,2.40
2022-12-26T15:20:02.346Z,5.85
2022-12-26T15:22:43.508Z,3.08
2022-12-26T15:25:30.239Z,2.50
2022-12-26T15:27:58.300Z,3.20
2022-12-26T15:30:50.830Z,2.97
2022-12-26T15:33:23.928Z,2.60
2022-12-26T15:35:51.909Z,2.90
2022-12-26T15:38:38.862Z,3.25
2022-12-26T15:41:26.609Z,2.95
2022-12-26T15:44:03.419Z,2.30
2022-12-26T15:46:44.047Z,2.13
2022-12-26T15:49:12.145Z,1.87
2022-12-26T15:51:43.395Z,1.95
2022-12-26T15:54:38.745Z,2.20
2022-12-26T15:57:16.200Z,1.23
2022-12-26T15:59:47.736Z,1.55
2022-12-26T16:02:31.203Z,2.47
2022-12-26T16:05:11.675Z,1.42
2022-12-26T16:07:59.793Z,2.38
2022-12-26T16:10:35.584Z,1.73
2022-12-26T16:13:17.785Z,1.50
2022-12-26T16:15:49.786Z,2.40
2022-12-26T16:18:20.297Z,3.58
2022-12-26T16:21:06.969Z,2.08
2022-12-26T16:23:37.911Z,1.45
2022-12-26T16:26:08.918Z,1.63
2022-12-26T16:28:40.267Z,1.60
2022-12-26T16:31:09.879Z,1.67
2022-12-26T16:33:58.635Z,1.75
2022-12-26T16:36:46.324Z,1.30
2022-12-26T16:39:23.615Z,1.60
2022-12-26T16:42:02.849Z,2.60
2022-12-26T16:44:51.054Z,6.38
2022-12-26T16:47:23.735Z,2.15
2022-12-26T16:50:06.276Z,1.60
2022-12-26T16:52:46.754Z,2.05
2022-12-26T16:55:25.198Z,1.30
2022-12-26T16:57:56.337Z,1.80
2022-12-26T17:00:25.546Z,1.25
2022-12-26T17:03:05.580Z,1.83
2022-12-26T17:05:38.060Z,1.55
2022-12-26T17:08:13.520Z,1.55
2022-12-26T17:10:47.294Z,1.20
2022-12-26T17:15:53.012Z,2.17
2022-12-26T17:18:29.764Z,1.98
2022-12-26T17:21:17.109Z,2.33
2022-12-26T17:23:46.443Z,1.85
2022-12-26T17:26:24.312Z,1.70
2022-12-26T17:28:52.635Z,2.20
2022-12-26T17:31:42.971Z,1.85
2022-12-26T17:34:16.412Z,1.80
2022-12-26T17:37:18.332Z,2.10
2022-12-26T17:39:45.335Z,1.15
2022-12-26T17:42:40.848Z,2.15
2022-12-26T17:45:27.533Z,1.90
2022-12-26T17:47:59.818Z,2.38
2022-12-26T17:50:33.561Z,2.53
2022-12-26T17:53:06.411Z,3.17
2022-12-26T17:55:35.530Z,2.13
2022-12-26T17:58:06.510Z,1.65
2022-12-26T18:00:35.198Z,1.65
2022-12-26T18:03:22.086Z,1.23
2022-12-26T18:05:56.411Z,1.23
2022-12-26T18:08:25.259Z,1.70
2022-12-26T18:10:54.141Z,1.45
2022-12-26T18:13:23.088Z,1.45
2022-12-26T18:15:56.162Z,1.65
2022-12-26T18:18:32.654Z,1.98
2022-12-26T18:21:21.425Z,1.42
2022-12-26T18:23:57.442Z,1.50
2022-12-26T18:26:31.205Z,2.28
2022-12-26T18:29:13.017Z,2.25
2022-12-26T18:31:42.001Z,2.65
2022-12-26T18:34:17.839Z,1.80
2022-12-26T18:37:05.464Z,2.10
2022-12-26T18:39:43.111Z,2.80
2022-12-26T18:42:14.927Z,2.90
2022-12-26T18:44:44.334Z,2.88
2022-12-26T18:47:17.317Z,2.30
2022-12-26T18:49:46.301Z,2.55
2022-12-26T18:52:21.099Z,1.98
2022-12-26T18:55:01.072Z,2.17
2022-12-26T18:57:51.379Z,2.97
2022-12-26T19:00:39.122Z,2.35
2022-12-26T19:03:26.940Z,3.28
2022-12-26T19:05:56.885Z,2.75
2022-12-26T19:08:27.334Z,2.83
2022-12-26T19:10:55.819Z,2.58
2022-12-26T19:13:29.600Z,4.40
2022-12-26T19:15:59.260Z,2.30
2022-12-26T19:18:30.198Z,2.15
2022-12-26T19:20:58.787Z,5.82
2022-12-26T19:23:28.284Z,2.08
2022-12-26T19:25:57.313Z,1.80
2022-12-26T19:28:28.539Z,1.90
2022-12-26T19:30:57.485Z,3.03
2022-12-26T19:33:29.395Z,1.85
2022-12-26T19:36:01.456Z,2.50
2022-12-26T19:38:34.175Z,2.83
2022-12-26T19:41:07.301Z,2.17
2022-12-26T19:43:44.646Z,2.13
2022-12-26T19:46:20.362Z,3.83
2022-12-26T19:49:02.885Z,2.10
2022-12-26T19:51:42.268Z,2.97
2022-12-26T19:54:15.166Z,4.50
2022-12-26T19:56:44.846Z,2.58
2022-12-26T19:59:16.543Z,3.25
2022-12-26T20:01:44.931Z,1.92
2022-12-26T20:04:34.789Z,2.08
2022-12-26T20:07:19.588Z,1.90
2022-12-26T20:10:02.030Z,2.28
2022-12-26T20:12:51.304Z,5.78
2022-12-26T20:15:22.150Z,3.83
2022-12-26T20:17:52.665Z,3.08
2022-12-26T20:20:23.163Z,2.97
2022-12-26T20:22:53.509Z,4.20
2022-12-26T20:25:24.924Z,6.20
2022-12-26T20:27:53.925Z,8.43
2022-12-26T20:30:22.219Z,14.25
2022-12-26T20:33:07.619Z,8.88
2022-12-26T20:35:46.078Z,11.93
2022-12-26T20:38:16.237Z,26.20
2022-12-26T20:40:49.935Z,14.05
2022-12-26T20:43:23.178Z,6.30
2022-12-26T20:46:08.213Z,4.32
2022-12-26T20:48:55.923Z,3.58
2022-12-26T20:51:42.157Z,4.30
2022-12-26T20:54:24.801Z,4.40
2022-12-26T20:56:58.034Z,3.70
2022-12-26T20:59:26.365Z,5.15
2022-12-26T21:01:55.182Z,4.28
2022-12-26T21:04:24.156Z,4.00
2022-12-26T21:07:06.544Z,4.82
2022-12-26T21:09:46.693Z,6.93
2022-12-26T21:12:20.774Z,6.60
2022-12-26T21:17:44.945Z,1.98
2022-12-26T21:20:22.982Z,2.67
2022-12-26T21:23:06.365Z,3.72
2022-12-26T21:25:44.999Z,1.95
2022-12-26T21:28:13.889Z,2.05
2022-12-26T21:30:47.135Z,3.22
2022-12-26T21:33:19.693Z,3.03
2022-12-26T21:35:50.883Z,2.65
2022-12-26T21:38:22.344Z,2.42
2022-12-26T21:40:53.661Z,2.22
2022-12-26T21:43:30.185Z,4.13
2022-12-26T21:46:01.696Z,2.35
2022-12-26T21:48:46.953Z,2.78
2022-12-26T21:51:27.019Z,2.90
2022-12-26T21:54:17.522Z,2.30
2022-12-26T21:59:57.613Z,1.85
2022-12-26T22:02:44.977Z,2.88
2022-12-26T22:05:13.846Z,2.70
2022-12-26T22:07:45.496Z,2.00
2022-12-26T22:10:34.530Z,1.85
2022-12-26T22:13:08.556Z,2.13
2022-12-26T22:16:00.547Z,2.15
2022-12-26T22:18:36.281Z,1.95
2022-12-26T22:21:15.337Z,1.75
2022-12-26T22:23:55.796Z,2.05
2022-12-26T22:26:33.791Z,2.40
2022-12-26T22:29:14.209Z,2.72
2022-12-26T22:31:53.279Z,1.65
2022-12-26T22:34:37.971Z,1.60
2022-12-26T22:37:09.603Z,1.58
2022-12-26T22:39:56.146Z,2.33
2022-12-26T22:42:42.491Z,1.83
2022-12-26T22:45:17.901Z,1.67
2022-12-26T22:48:05.584Z,1.83
2022-12-26T22:50:43.015Z,1.80
2022-12-26T22:53:30.646Z,3.13
2022-12-26T22:56:06.823Z,1.80
2022-12-26T22:58:43.926Z,1.70
2022-12-26T23:01:18.834Z,2.13
2022-12-26T23:03:54.682Z,1.48
2022-12-26T23:06:45.416Z,2.67
2022-12-26T23:09:33.010Z,1.50
2022-12-26T23:12:27.950Z,2.28
2022-12-26T23:15:18.743Z,1.50
2022-12-26T23:18:32.735Z,2.17
2022-12-26T23:21:42.186Z,1.83
2022-12-26T23:24:21.289Z,1.75
2022-12-26T23:26:53.333Z,1.88
2022-12-26T23:29:45.624Z,2.10
2022-12-26T23:32:30.510Z,2.38
2022-12-26T23:35:00.487Z,2.28
2022-12-26T23:37:29.668Z,3.90
2022-12-26T23:40:00.903Z,1.98
2022-12-26T23:42:34.010Z,1.52
2022-12-26T23:45:02.911Z,2.22
2022-12-26T23:47:36.866Z,1.95
2022-12-26T23:52:45.476Z,2.05
2022-12-26T23:55:14.859Z,1.80
2022-12-26T23:58:01.084Z,2.08
